sensor_id;sensor_type;location;lat;lon;timestamp;P1;durP1;ratioP1;P2;durP2;ratioP2
9166;SDS011;4618;48.818;9.088;2023-04-19T00:02:17;15.37;;;13.07;;
9166;SDS011;4618;48.818;9.088;2023-04-19T00:04:44;14.30;;;12.80;;
9166;SDS011;4618;48.818;9.088;2023-04-19T00:07:10;14.33;;;12.83;;
9166;SDS011;4618;48.818;9.088;2023-04-19T00:09:35;17.60;;;13.57;;
9166;SDS011;4618;48.818;9.088;2023-04-19T00:12:01;15.23;;;12.70;;
9166;SDS011;4618;48.818;9.088;2023-04-19T00:14:27;14.70;;;13.00;;
9166;SDS011;4618;48.818;9.088;2023-04-19T00:16:53;14.07;;;12.50;;
9166;SDS011;4618;48.818;9.088;2023-04-19T00:19:18;15.53;;;13.03;;
9166;SDS011;4618;48.818;9.088;2023-04-19T00:21:46;14.70;;;12.93;;
9166;SDS011;4618;48.818;9.088;2023-04-19T00:24:12;15.43;;;13.27;;
9166;SDS011;4618;48.818;9.088;2023-04-19T00:26:37;14.17;;;12.57;;
9166;SDS011;4618;48.818;9.088;2023-04-19T00:29:03;15.33;;;12.67;;
9166;SDS011;4618;48.818;9.088;2023-04-19T00:31:28;15.67;;;13.80;;
9166;SDS011;4618;48.818;9.088;2023-04-19T00:33:54;16.63;;;12.50;;
9166;SDS011;4618;48.818;9.088;2023-04-19T00:36:20;15.43;;;12.63;;
9166;SDS011;4618;48.818;9.088;2023-04-19T00:38:47;15.57;;;13.17;;
9166;SDS011;4618;48.818;9.088;2023-04-19T00:41:12;17.80;;;13.27;;
9166;SDS011;4618;48.818;9.088;2023-04-19T00:43:38;15.63;;;12.40;;
9166;SDS011;4618;48.818;9.088;2023-04-19T00:46:04;15.53;;;12.63;;
9166;SDS011;4618;48.818;9.088;2023-04-19T00:48:30;15.57;;;12.83;;
9166;SDS011;4618;48.818;9.088;2023-04-19T00:50:55;15.90;;;12.70;;
9166;SDS011;4618;48.818;9.088;2023-04-19T00:53:21;16.37;;;12.90;;
9166;SDS011;4618;48.818;9.088;2023-04-19T00:55:47;14.90;;;12.77;;
9166;SDS011;4618;48.818;9.088;2023-04-19T00:58:15;15.03;;;13.23;;
9166;SDS011;4618;48.818;9.088;2023-04-19T01:00:42;14.47;;;12.50;;
9166;SDS011;4618;48.818;9.088;2023-04-19T01:03:08;16.63;;;12.30;;
9166;SDS011;4618;48.818;9.088;2023-04-19T01:05:34;15.50;;;13.10;;
9166;SDS011;4618;48.818;9.088;2023-04-19T01:08:00;16.03;;;12.63;;
9166;SDS011;4618;48.818;9.088;2023-04-19T01:10:25;17.87;;;13.57;;
9166;SDS011;4618;48.818;9.088;2023-04-19T01:12:51;15.17;;;13.30;;
9166;SDS011;4618;48.818;9.088;2023-04-19T01:15:17;15.37;;;12.67;;
9166;SDS011;4618;48.818;9.088;2023-04-19T01:17:42;15.53;;;13.37;;
9166;SDS011;4618;48.818;9.088;2023-04-19T01:20:08;16.10;;;12.80;;
9166;SDS011;4618;48.818;9.088;2023-04-19T01:22:34;14.90;;;13.03;;
9166;SDS011;4618;48.818;9.088;2023-04-19T01:25:02;18.47;;;13.23;;
9166;SDS011;4618;48.818;9.088;2023-04-19T01:27:29;15.93;;;12.80;;
9166;SDS011;4618;48.818;9.088;2023-04-19T01:29:54;14.73;;;12.97;;
9166;SDS011;4618;48.818;9.088;2023-04-19T01:32:20;16.37;;;13.07;;
9166;SDS011;4618;48.818;9.088;2023-04-19T01:34:46;16.27;;;13.80;;
9166;SDS011;4618;48.818;9.088;2023-04-19T01:37:13;15.30;;;13.07;;
9166;SDS011;4618;48.818;9.088;2023-04-19T01:39:38;14.63;;;12.30;;
9166;SDS011;4618;48.818;9.088;2023-04-19T01:42:04;18.20;;;13.73;;
9166;SDS011;4618;48.818;9.088;2023-04-19T01:44:29;15.93;;;13.33;;
9166;SDS011;4618;48.818;9.088;2023-04-19T01:46:55;16.10;;;12.73;;
9166;SDS011;4618;48.818;9.088;2023-04-19T01:49:21;15.97;;;13.23;;
9166;SDS011;4618;48.818;9.088;2023-04-19T01:51:46;14.97;;;13.10;;
9166;SDS011;4618;48.818;9.088;2023-04-19T01:54:12;15.73;;;13.07;;
9166;SDS011;4618;48.818;9.088;2023-04-19T01:56:37;15.27;;;12.53;;
9166;SDS011;4618;48.818;9.088;2023-04-19T01:59:03;15.07;;;13.47;;
9166;SDS011;4618;48.818;9.088;2023-04-19T02:01:28;15.23;;;13.00;;
9166;SDS011;4618;48.818;9.088;2023-04-19T02:03:54;15.07;;;13.30;;
9166;SDS011;4618;48.818;9.088;2023-04-19T02:06:20;15.33;;;13.17;;
9166;SDS011;4618;48.818;9.088;2023-04-19T02:08:45;14.83;;;13.27;;
9166;SDS011;4618;48.818;9.088;2023-04-19T02:11:11;16.30;;;13.70;;
9166;SDS011;4618;48.818;9.088;2023-04-19T02:13:40;17.40;;;14.30;;
9166;SDS011;4618;48.818;9.088;2023-04-19T02:16:07;16.10;;;14.00;;
9166;SDS011;4618;48.818;9.088;2023-04-19T02:18:34;15.03;;;13.43;;
9166;SDS011;4618;48.818;9.088;2023-04-19T02:21:02;15.00;;;13.40;;
9166;SDS011;4618;48.818;9.088;2023-04-19T02:23:29;16.17;;;13.63;;
9166;SDS011;4618;48.818;9.088;2023-04-19T02:25:55;15.33;;;13.07;;
9166;SDS011;4618;48.818;9.088;2023-04-19T02:28:20;17.10;;;13.77;;
9166;SDS011;4618;48.818;9.088;2023-04-19T02:30:46;15.50;;;13.20;;
9166;SDS011;4618;48.818;9.088;2023-04-19T02:33:11;15.97;;;13.00;;
9166;SDS011;4618;48.818;9.088;2023-04-19T02:35:37;15.63;;;13.93;;
9166;SDS011;4618;48.818;9.088;2023-04-19T02:38:03;17.27;;;13.50;;
9166;SDS011;4618;48.818;9.088;2023-04-19T02:40:29;15.03;;;13.43;;
9166;SDS011;4618;48.818;9.088;2023-04-19T02:42:55;16.93;;;14.47;;
9166;SDS011;4618;48.818;9.088;2023-04-19T02:45:20;15.90;;;14.27;;
9166;SDS011;4618;48.818;9.088;2023-04-19T02:47:46;15.43;;;13.80;;
9166;SDS011;4618;48.818;9.088;2023-04-19T02:50:12;16.63;;;14.40;;
9166;SDS011;4618;48.818;9.088;2023-04-19T02:52:39;15.97;;;14.17;;
9166;SDS011;4618;48.818;9.088;2023-04-19T02:55:05;15.67;;;14.03;;
9166;SDS011;4618;48.818;9.088;2023-04-19T02:57:31;18.57;;;15.00;;
9166;SDS011;4618;48.818;9.088;2023-04-19T02:59:57;16.37;;;14.67;;
9166;SDS011;4618;48.818;9.088;2023-04-19T03:02:23;16.13;;;14.27;;
9166;SDS011;4618;48.818;9.088;2023-04-19T03:04:49;17.03;;;13.93;;
9166;SDS011;4618;48.818;9.088;2023-04-19T03:07:14;17.93;;;14.20;;
9166;SDS011;4618;48.818;9.088;2023-04-19T03:09:41;17.40;;;14.53;;
9166;SDS011;4618;48.818;9.088;2023-04-19T03:12:06;16.63;;;14.33;;
9166;SDS011;4618;48.818;9.088;2023-04-19T03:14:32;17.60;;;15.80;;
9166;SDS011;4618;48.818;9.088;2023-04-19T03:16:58;15.33;;;13.73;;
9166;SDS011;4618;48.818;9.088;2023-04-19T03:19:23;17.63;;;14.63;;
9166;SDS011;4618;48.818;9.088;2023-04-19T03:21:49;17.77;;;15.37;;
9166;SDS011;4618;48.818;9.088;2023-04-19T03:24:15;18.37;;;15.27;;
9166;SDS011;4618;48.818;9.088;2023-04-19T03:26:42;16.77;;;14.57;;
9166;SDS011;4618;48.818;9.088;2023-04-19T03:29:08;17.07;;;14.90;;
9166;SDS011;4618;48.818;9.088;2023-04-19T03:31:33;20.10;;;15.80;;
9166;SDS011;4618;48.818;9.088;2023-04-19T03:33:59;16.70;;;14.93;;
9166;SDS011;4618;48.818;9.088;2023-04-19T03:36:24;16.77;;;14.90;;
9166;SDS011;4618;48.818;9.088;2023-04-19T03:38:51;16.97;;;15.17;;
9166;SDS011;4618;48.818;9.088;2023-04-19T03:41:17;18.67;;;15.87;;
9166;SDS011;4618;48.818;9.088;2023-04-19T03:43:43;16.60;;;14.80;;
9166;SDS011;4618;48.818;9.088;2023-04-19T03:46:08;17.70;;;15.67;;
9166;SDS011;4618;48.818;9.088;2023-04-19T03:48:34;17.50;;;15.30;;
9166;SDS011;4618;48.818;9.088;2023-04-19T03:50:59;17.77;;;15.87;;
9166;SDS011;4618;48.818;9.088;2023-04-19T03:53:25;17.03;;;15.23;;
9166;SDS011;4618;48.818;9.088;2023-04-19T03:55:51;21.10;;;15.40;;
9166;SDS011;4618;48.818;9.088;2023-04-19T03:58:16;17.63;;;15.60;;
9166;SDS011;4618;48.818;9.088;2023-04-19T04:00:42;17.63;;;15.83;;
9166;SDS011;4618;48.818;9.088;2023-04-19T04:03:07;18.70;;;16.13;;
9166;SDS011;4618;48.818;9.088;2023-04-19T04:05:33;18.10;;;16.00;;
9166;SDS011;4618;48.818;9.088;2023-04-19T04:07:59;18.23;;;16.30;;
9166;SDS011;4618;48.818;9.088;2023-04-19T04:10:24;18.10;;;16.17;;
9166;SDS011;4618;48.818;9.088;2023-04-19T04:12:50;18.30;;;15.47;;
9166;SDS011;4618;48.818;9.088;2023-04-19T04:15:16;17.83;;;16.03;;
9166;SDS011;4618;48.818;9.088;2023-04-19T04:17:41;17.20;;;15.23;;
9166;SDS011;4618;48.818;9.088;2023-04-19T04:20:07;19.07;;;16.00;;
9166;SDS011;4618;48.818;9.088;2023-04-19T04:22:33;18.10;;;15.50;;
9166;SDS011;4618;48.818;9.088;2023-04-19T04:24:59;18.60;;;16.10;;
9166;SDS011;4618;48.818;9.088;2023-04-19T04:27:26;20.17;;;16.27;;
9166;SDS011;4618;48.818;9.088;2023-04-19T04:29:51;19.13;;;16.87;;
9166;SDS011;4618;48.818;9.088;2023-04-19T04:32:17;18.07;;;15.53;;
9166;SDS011;4618;48.818;9.088;2023-04-19T04:34:46;18.80;;;16.03;;
9166;SDS011;4618;48.818;9.088;2023-04-19T04:37:12;17.27;;;15.23;;
9166;SDS011;4618;48.818;9.088;2023-04-19T04:39:38;20.03;;;15.87;;
9166;SDS011;4618;48.818;9.088;2023-04-19T04:42:04;18.13;;;15.67;;
9166;SDS011;4618;48.818;9.088;2023-04-19T04:44:33;19.73;;;16.37;;
9166;SDS011;4618;48.818;9.088;2023-04-19T04:47:00;18.40;;;16.10;;
9166;SDS011;4618;48.818;9.088;2023-04-19T04:49:25;18.40;;;16.23;;
9166;SDS011;4618;48.818;9.088;2023-04-19T04:51:51;18.37;;;15.83;;
9166;SDS011;4618;48.818;9.088;2023-04-19T04:54:16;18.77;;;16.47;;
9166;SDS011;4618;48.818;9.088;2023-04-19T04:56:42;18.57;;;16.00;;
9166;SDS011;4618;48.818;9.088;2023-04-19T04:59:07;19.23;;;15.83;;
9166;SDS011;4618;48.818;9.088;2023-04-19T05:01:33;19.23;;;16.40;;
9166;SDS011;4618;48.818;9.088;2023-04-19T05:03:59;17.53;;;15.27;;
9166;SDS011;4618;48.818;9.088;2023-04-19T05:06:25;20.37;;;16.83;;
9166;SDS011;4618;48.818;9.088;2023-04-19T05:08:51;19.27;;;15.70;;
9166;SDS011;4618;48.818;9.088;2023-04-19T05:11:16;18.27;;;16.30;;
9166;SDS011;4618;48.818;9.088;2023-04-19T05:13:42;18.80;;;16.37;;
9166;SDS011;4618;48.818;9.088;2023-04-19T05:16:08;19.83;;;16.43;;
9166;SDS011;4618;48.818;9.088;2023-04-19T05:18:33;21.50;;;16.83;;
9166;SDS011;4618;48.818;9.088;2023-04-19T05:20:59;20.60;;;16.97;;
9166;SDS011;4618;48.818;9.088;2023-04-19T05:23:25;21.97;;;16.43;;
9166;SDS011;4618;48.818;9.088;2023-04-19T05:25:50;18.47;;;15.43;;
9166;SDS011;4618;48.818;9.088;2023-04-19T05:28:16;16.87;;;14.93;;
9166;SDS011;4618;48.818;9.088;2023-04-19T05:30:41;17.43;;;15.50;;
9166;SDS011;4618;48.818;9.088;2023-04-19T05:33:07;20.70;;;16.33;;
9166;SDS011;4618;48.818;9.088;2023-04-19T05:35:32;17.63;;;15.77;;
9166;SDS011;4618;48.818;9.088;2023-04-19T05:37:58;19.70;;;15.07;;
9166;SDS011;4618;48.818;9.088;2023-04-19T05:40:23;16.97;;;15.17;;
9166;SDS011;4618;48.818;9.088;2023-04-19T05:42:49;18.13;;;14.80;;
9166;SDS011;4618;48.818;9.088;2023-04-19T05:45:15;16.50;;;14.67;;
9166;SDS011;4618;48.818;9.088;2023-04-19T05:47:42;16.03;;;14.30;;
9166;SDS011;4618;48.818;9.088;2023-04-19T05:50:08;16.43;;;14.73;;
9166;SDS011;4618;48.818;9.088;2023-04-19T05:52:34;16.13;;;14.37;;
9166;SDS011;4618;48.818;9.088;2023-04-19T05:54:59;18.00;;;15.20;;
9166;SDS011;4618;48.818;9.088;2023-04-19T05:57:25;16.27;;;14.57;;
9166;SDS011;4618;48.818;9.088;2023-04-19T05:59:51;16.13;;;14.20;;
9166;SDS011;4618;48.818;9.088;2023-04-19T06:02:16;16.13;;;14.40;;
9166;SDS011;4618;48.818;9.088;2023-04-19T06:04:42;15.33;;;13.73;;
9166;SDS011;4618;48.818;9.088;2023-04-19T06:07:08;14.40;;;12.90;;
9166;SDS011;4618;48.818;9.088;2023-04-19T06:09:33;17.70;;;14.67;;
9166;SDS011;4618;48.818;9.088;2023-04-19T06:11:59;16.00;;;13.63;;
9166;SDS011;4618;48.818;9.088;2023-04-19T06:14:26;15.23;;;13.63;;
9166;SDS011;4618;48.818;9.088;2023-04-19T06:16:53;14.17;;;12.77;;
9166;SDS011;4618;48.818;9.088;2023-04-19T06:19:18;16.40;;;13.60;;
9166;SDS011;4618;48.818;9.088;2023-04-19T06:21:45;15.43;;;13.83;;
9166;SDS011;4618;48.818;9.088;2023-04-19T06:24:11;16.43;;;13.60;;
9166;SDS011;4618;48.818;9.088;2023-04-19T06:26:37;15.10;;;13.37;;
9166;SDS011;4618;48.818;9.088;2023-04-19T06:29:02;16.37;;;14.70;;
9166;SDS011;4618;48.818;9.088;2023-04-19T06:31:28;16.30;;;14.60;;
9166;SDS011;4618;48.818;9.088;2023-04-19T06:33:53;17.07;;;14.27;;
9166;SDS011;4618;48.818;9.088;2023-04-19T06:36:19;16.13;;;13.67;;
9166;SDS011;4618;48.818;9.088;2023-04-19T06:38:45;16.33;;;13.73;;
9166;SDS011;4618;48.818;9.088;2023-04-19T06:41:10;14.43;;;13.03;;
9166;SDS011;4618;48.818;9.088;2023-04-19T06:43:36;14.87;;;12.57;;
9166;SDS011;4618;48.818;9.088;2023-04-19T06:46:04;14.00;;;12.57;;
9166;SDS011;4618;48.818;9.088;2023-04-19T06:48:30;15.23;;;13.30;;
9166;SDS011;4618;48.818;9.088;2023-04-19T06:50:56;15.87;;;13.40;;
9166;SDS011;4618;48.818;9.088;2023-04-19T06:53:22;14.87;;;13.30;;
9166;SDS011;4618;48.818;9.088;2023-04-19T06:55:47;14.07;;;12.47;;
9166;SDS011;4618;48.818;9.088;2023-04-19T06:58:13;14.10;;;12.60;;
9166;SDS011;4618;48.818;9.088;2023-04-19T07:00:39;13.13;;;11.83;;
9166;SDS011;4618;48.818;9.088;2023-04-19T07:03:04;13.30;;;11.93;;
9166;SDS011;4618;48.818;9.088;2023-04-19T07:05:30;13.90;;;12.50;;
9166;SDS011;4618;48.818;9.088;2023-04-19T07:07:56;13.80;;;12.40;;
9166;SDS011;4618;48.818;9.088;2023-04-19T07:10:22;15.70;;;12.07;;
9166;SDS011;4618;48.818;9.088;2023-04-19T07:12:48;14.00;;;12.60;;
9166;SDS011;4618;48.818;9.088;2023-04-19T07:15:13;13.77;;;12.40;;
9166;SDS011;4618;48.818;9.088;2023-04-19T07:17:39;14.07;;;12.63;;
9166;SDS011;4618;48.818;9.088;2023-04-19T07:20:05;14.23;;;12.43;;
9166;SDS011;4618;48.818;9.088;2023-04-19T07:22:31;14.57;;;11.67;;
9166;SDS011;4618;48.818;9.088;2023-04-19T07:24:57;13.43;;;12.03;;
9166;SDS011;4618;48.818;9.088;2023-04-19T07:27:23;15.43;;;12.33;;
9166;SDS011;4618;48.818;9.088;2023-04-19T07:32:22;13.17;;;11.80;;
9166;SDS011;4618;48.818;9.088;2023-04-19T07:34:47;12.73;;;11.43;;
9166;SDS011;4618;48.818;9.088;2023-04-19T07:37:13;12.63;;;11.33;;
9166;SDS011;4618;48.818;9.088;2023-04-19T07:39:38;13.87;;;12.37;;
9166;SDS011;4618;48.818;9.088;2023-04-19T07:42:04;13.07;;;11.67;;
9166;SDS011;4618;48.818;9.088;2023-04-19T07:44:30;13.00;;;11.70;;
9166;SDS011;4618;48.818;9.088;2023-04-19T07:46:55;12.70;;;11.40;;
9166;SDS011;4618;48.818;9.088;2023-04-19T07:49:21;12.67;;;11.37;;
9166;SDS011;4618;48.818;9.088;2023-04-19T07:51:46;13.23;;;11.83;;
9166;SDS011;4618;48.818;9.088;2023-04-19T07:54:12;12.63;;;11.43;;
9166;SDS011;4618;48.818;9.088;2023-04-19T07:56:40;12.13;;;10.93;;
9166;SDS011;4618;48.818;9.088;2023-04-19T07:59:05;12.00;;;10.77;;
9166;SDS011;4618;48.818;9.088;2023-04-19T08:01:31;13.63;;;10.40;;
9166;SDS011;4618;48.818;9.088;2023-04-19T08:03:56;11.07;;;9.97;;
9166;SDS011;4618;48.818;9.088;2023-04-19T08:06:22;11.00;;;9.90;;
9166;SDS011;4618;48.818;9.088;2023-04-19T08:08:47;9.77;;;8.83;;
9166;SDS011;4618;48.818;9.088;2023-04-19T08:11:13;10.33;;;9.33;;
9166;SDS011;4618;48.818;9.088;2023-04-19T08:13:39;10.07;;;9.07;;
9166;SDS011;4618;48.818;9.088;2023-04-19T08:16:05;10.57;;;9.50;;
9166;SDS011;4618;48.818;9.088;2023-04-19T08:18:31;11.77;;;9.53;;
9166;SDS011;4618;48.818;9.088;2023-04-19T08:20:57;10.97;;;8.57;;
9166;SDS011;4618;48.818;9.088;2023-04-19T08:23:23;10.30;;;9.27;;
9166;SDS011;4618;48.818;9.088;2023-04-19T08:25:49;9.40;;;8.50;;
9166;SDS011;4618;48.818;9.088;2023-04-19T08:28:15;8.50;;;7.40;;
9166;SDS011;4618;48.818;9.088;2023-04-19T08:30:41;8.10;;;7.30;;
9166;SDS011;4618;48.818;9.088;2023-04-19T08:33:07;9.43;;;8.53;;
9166;SDS011;4618;48.818;9.088;2023-04-19T08:35:41;9.90;;;8.40;;
9166;SDS011;4618;48.818;9.088;2023-04-19T08:38:09;9.17;;;8.23;;
9166;SDS011;4618;48.818;9.088;2023-04-19T08:40:34;8.90;;;8.10;;
9166;SDS011;4618;48.818;9.088;2023-04-19T08:43:14;9.80;;;8.90;;
9166;SDS011;4618;48.818;9.088;2023-04-19T08:45:42;9.47;;;8.47;;
9166;SDS011;4618;48.818;9.088;2023-04-19T08:48:14;9.33;;;8.43;;
9166;SDS011;4618;48.818;9.088;2023-04-19T08:50:41;10.23;;;9.10;;
9166;SDS011;4618;48.818;9.088;2023-04-19T08:53:07;9.53;;;8.63;;
9166;SDS011;4618;48.818;9.088;2023-04-19T08:55:34;10.17;;;8.53;;
9166;SDS011;4618;48.818;9.088;2023-04-19T08:58:02;10.10;;;9.00;;
9166;SDS011;4618;48.818;9.088;2023-04-19T09:00:28;10.50;;;8.90;;
9166;SDS011;4618;48.818;9.088;2023-04-19T09:02:54;10.73;;;9.53;;
9166;SDS011;4618;48.818;9.088;2023-04-19T09:05:20;9.97;;;9.00;;
9166;SDS011;4618;48.818;9.088;2023-04-19T09:07:46;9.90;;;9.00;;
9166;SDS011;4618;48.818;9.088;2023-04-19T09:10:18;11.63;;;10.07;;
9166;SDS011;4618;48.818;9.088;2023-04-19T09:13:03;10.87;;;9.77;;
9166;SDS011;4618;48.818;9.088;2023-04-19T09:15:36;12.23;;;10.17;;
9166;SDS011;4618;48.818;9.088;2023-04-19T09:18:04;12.00;;;10.67;;
9166;SDS011;4618;48.818;9.088;2023-04-19T09:20:38;11.17;;;9.97;;
9166;SDS011;4618;48.818;9.088;2023-04-19T09:23:06;11.20;;;10.00;;
9166;SDS011;4618;48.818;9.088;2023-04-19T09:25:32;11.30;;;10.10;;
9166;SDS011;4618;48.818;9.088;2023-04-19T09:28:11;10.97;;;9.77;;
9166;SDS011;4618;48.818;9.088;2023-04-19T09:30:38;10.50;;;9.40;;
9166;SDS011;4618;48.818;9.088;2023-04-19T09:33:05;11.80;;;10.63;;
9166;SDS011;4618;48.818;9.088;2023-04-19T09:35:49;11.70;;;10.50;;
9166;SDS011;4618;48.818;9.088;2023-04-19T09:38:15;10.53;;;9.47;;
9166;SDS011;4618;48.818;9.088;2023-04-19T09:40:41;11.17;;;10.03;;
9166;SDS011;4618;48.818;9.088;2023-04-19T09:43:07;10.27;;;9.23;;
9166;SDS011;4618;48.818;9.088;2023-04-19T09:45:43;12.23;;;9.83;;
9166;SDS011;4618;48.818;9.088;2023-04-19T09:48:09;10.90;;;9.43;;
9166;SDS011;4618;48.818;9.088;2023-04-19T09:50:36;11.83;;;10.07;;
9166;SDS011;4618;48.818;9.088;2023-04-19T09:53:18;9.73;;;8.83;;
9166;SDS011;4618;48.818;9.088;2023-04-19T09:55:45;10.70;;;9.20;;
9166;SDS011;4618;48.818;9.088;2023-04-19T09:58:14;8.70;;;7.80;;
9166;SDS011;4618;48.818;9.088;2023-04-19T10:00:40;9.63;;;8.57;;
9166;SDS011;4618;48.818;9.088;2023-04-19T10:03:08;8.37;;;7.57;;
9166;SDS011;4618;48.818;9.088;2023-04-19T10:05:37;9.30;;;8.23;;
9166;SDS011;4618;48.818;9.088;2023-04-19T10:08:06;9.27;;;8.37;;
9166;SDS011;4618;48.818;9.088;2023-04-19T10:10:32;9.13;;;8.20;;
9166;SDS011;4618;48.818;9.088;2023-04-19T10:12:58;9.47;;;8.43;;
9166;SDS011;4618;48.818;9.088;2023-04-19T10:15:27;9.10;;;8.20;;
9166;SDS011;4618;48.818;9.088;2023-04-19T10:17:54;9.40;;;8.40;;
9166;SDS011;4618;48.818;9.088;2023-04-19T10:20:24;8.03;;;7.30;;
9166;SDS011;4618;48.818;9.088;2023-04-19T10:22:54;8.70;;;7.80;;
9166;SDS011;4618;48.818;9.088;2023-04-19T10:25:22;8.37;;;7.43;;
9166;SDS011;4618;48.818;9.088;2023-04-19T10:27:53;8.40;;;7.67;;
9166;SDS011;4618;48.818;9.088;2023-04-19T10:30:22;8.77;;;7.97;;
9166;SDS011;4618;48.818;9.088;2023-04-19T10:32:51;8.93;;;8.03;;
9166;SDS011;4618;48.818;9.088;2023-04-19T10:38:00;9.57;;;8.67;;
9166;SDS011;4618;48.818;9.088;2023-04-19T10:43:20;9.00;;;8.10;;
9166;SDS011;4618;48.818;9.088;2023-04-19T10:45:47;11.13;;;9.00;;
9166;SDS011;4618;48.818;9.088;2023-04-19T10:50:59;8.90;;;8.00;;
9166;SDS011;4618;48.818;9.088;2023-04-19T10:56:19;9.57;;;8.57;;
9166;SDS011;4618;48.818;9.088;2023-04-19T11:01:44;9.93;;;8.57;;
9166;SDS011;4618;48.818;9.088;2023-04-19T11:04:12;9.87;;;8.63;;
9166;SDS011;4618;48.818;9.088;2023-04-19T11:11:59;9.40;;;8.40;;
9166;SDS011;4618;48.818;9.088;2023-04-19T11:14:29;8.87;;;8.07;;
9166;SDS011;4618;48.818;9.088;2023-04-19T11:16:56;8.70;;;7.90;;
9166;SDS011;4618;48.818;9.088;2023-04-19T11:19:22;9.27;;;8.43;;
9166;SDS011;4618;48.818;9.088;2023-04-19T11:21:48;9.47;;;8.57;;
9166;SDS011;4618;48.818;9.088;2023-04-19T11:24:14;9.40;;;8.50;;
9166;SDS011;4618;48.818;9.088;2023-04-19T11:26:46;9.63;;;8.33;;
9166;SDS011;4618;48.818;9.088;2023-04-19T11:29:14;10.63;;;9.57;;
9166;SDS011;4618;48.818;9.088;2023-04-19T11:31:42;11.30;;;10.23;;
9166;SDS011;4618;48.818;9.088;2023-04-19T11:34:10;11.83;;;10.63;;
9166;SDS011;4618;48.818;9.088;2023-04-19T11:36:45;11.70;;;10.50;;
9166;SDS011;4618;48.818;9.088;2023-04-19T11:39:15;11.17;;;10.07;;
9166;SDS011;4618;48.818;9.088;2023-04-19T11:41:40;13.23;;;11.20;;
9166;SDS011;4618;48.818;9.088;2023-04-19T11:44:16;12.93;;;11.63;;
9166;SDS011;4618;48.818;9.088;2023-04-19T11:46:56;14.53;;;12.23;;
9166;SDS011;4618;48.818;9.088;2023-04-19T11:49:29;13.30;;;12.00;;
9166;SDS011;4618;48.818;9.088;2023-04-19T11:52:00;14.87;;;12.80;;
9166;SDS011;4618;48.818;9.088;2023-04-19T11:54:29;14.90;;;13.40;;
9166;SDS011;4618;48.818;9.088;2023-04-19T11:57:02;14.90;;;13.33;;
9166;SDS011;4618;48.818;9.088;2023-04-19T11:59:29;15.37;;;13.77;;
9166;SDS011;4618;48.818;9.088;2023-04-19T12:02:03;16.63;;;14.73;;
9166;SDS011;4618;48.818;9.088;2023-04-19T12:04:30;18.17;;;15.73;;
9166;SDS011;4618;48.818;9.088;2023-04-19T12:06:56;17.87;;;16.03;;
9166;SDS011;4618;48.818;9.088;2023-04-19T12:09:23;17.97;;;16.07;;
9166;SDS011;4618;48.818;9.088;2023-04-19T12:11:49;19.87;;;17.67;;
9166;SDS011;4618;48.818;9.088;2023-04-19T12:14:19;20.90;;;17.67;;
9166;SDS011;4618;48.818;9.088;2023-04-19T12:19:47;20.60;;;18.33;;
9166;SDS011;4618;48.818;9.088;2023-04-19T12:22:14;19.30;;;17.33;;
9166;SDS011;4618;48.818;9.088;2023-04-19T12:24:41;19.60;;;17.60;;
9166;SDS011;4618;48.818;9.088;2023-04-19T12:27:07;20.00;;;17.77;;
9166;SDS011;4618;48.818;9.088;2023-04-19T12:29:33;19.20;;;17.20;;
9166;SDS011;4618;48.818;9.088;2023-04-19T12:32:00;20.67;;;17.70;;
9166;SDS011;4618;48.818;9.088;2023-04-19T12:34:26;20.57;;;17.27;;
9166;SDS011;4618;48.818;9.088;2023-04-19T12:36:52;21.67;;;17.90;;
9166;SDS011;4618;48.818;9.088;2023-04-19T12:39:18;22.73;;;18.53;;
9166;SDS011;4618;48.818;9.088;2023-04-19T12:41:43;20.13;;;17.47;;
9166;SDS011;4618;48.818;9.088;2023-04-19T12:44:12;19.17;;;16.87;;
9166;SDS011;4618;48.818;9.088;2023-04-19T12:46:37;22.10;;;17.77;;
9166;SDS011;4618;48.818;9.088;2023-04-19T12:49:03;19.67;;;16.53;;
9166;SDS011;4618;48.818;9.088;2023-04-19T12:51:29;20.37;;;15.97;;
9166;SDS011;4618;48.818;9.088;2023-04-19T12:53:55;18.60;;;14.83;;
9166;SDS011;4618;48.818;9.088;2023-04-19T12:56:21;17.03;;;14.63;;
9166;SDS011;4618;48.818;9.088;2023-04-19T12:58:46;18.67;;;14.03;;
9166;SDS011;4618;48.818;9.088;2023-04-19T13:01:12;17.23;;;14.30;;
9166;SDS011;4618;48.818;9.088;2023-04-19T13:03:38;17.07;;;13.80;;
9166;SDS011;4618;48.818;9.088;2023-04-19T13:06:03;15.23;;;13.57;;
9166;SDS011;4618;48.818;9.088;2023-04-19T13:08:29;17.47;;;14.53;;
9166;SDS011;4618;48.818;9.088;2023-04-19T13:10:55;16.20;;;13.67;;
9166;SDS011;4618;48.818;9.088;2023-04-19T13:13:23;15.87;;;14.17;;
9166;SDS011;4618;48.818;9.088;2023-04-19T13:15:49;16.10;;;13.83;;
9166;SDS011;4618;48.818;9.088;2023-04-19T13:18:15;14.90;;;13.13;;
9166;SDS011;4618;48.818;9.088;2023-04-19T13:20:41;16.90;;;14.60;;
9166;SDS011;4618;48.818;9.088;2023-04-19T13:23:07;20.50;;;15.03;;
9166;SDS011;4618;48.818;9.088;2023-04-19T13:25:32;16.63;;;14.70;;
9166;SDS011;4618;48.818;9.088;2023-04-19T13:27:58;17.33;;;15.17;;
9166;SDS011;4618;48.818;9.088;2023-04-19T13:30:24;17.60;;;14.90;;
9166;SDS011;4618;48.818;9.088;2023-04-19T13:32:49;16.77;;;14.83;;
9166;SDS011;4618;48.818;9.088;2023-04-19T13:35:15;18.83;;;14.93;;
9166;SDS011;4618;48.818;9.088;2023-04-19T13:37:40;19.67;;;14.80;;
9166;SDS011;4618;48.818;9.088;2023-04-19T13:40:08;16.40;;;14.20;;
9166;SDS011;4618;48.818;9.088;2023-04-19T13:42:34;16.20;;;13.93;;
9166;SDS011;4618;48.818;9.088;2023-04-19T13:45:00;17.23;;;13.83;;
9166;SDS011;4618;48.818;9.088;2023-04-19T13:47:25;15.27;;;13.00;;
9166;SDS011;4618;48.818;9.088;2023-04-19T13:49:51;15.93;;;13.30;;
9166;SDS011;4618;48.818;9.088;2023-04-19T13:52:19;14.77;;;13.17;;
9166;SDS011;4618;48.818;9.088;2023-04-19T13:54:47;15.37;;;13.50;;
9166;SDS011;4618;48.818;9.088;2023-04-19T13:57:12;16.73;;;13.87;;
9166;SDS011;4618;48.818;9.088;2023-04-19T13:59:38;18.47;;;13.83;;
9166;SDS011;4618;48.818;9.088;2023-04-19T14:02:04;15.57;;;13.37;;
9166;SDS011;4618;48.818;9.088;2023-04-19T14:04:30;15.23;;;13.07;;
9166;SDS011;4618;48.818;9.088;2023-04-19T14:06:56;13.23;;;11.93;;
9166;SDS011;4618;48.818;9.088;2023-04-19T14:09:21;12.77;;;11.37;;
9166;SDS011;4618;48.818;9.088;2023-04-19T14:11:47;14.20;;;11.60;;
9166;SDS011;4618;48.818;9.088;2023-04-19T14:14:13;13.10;;;10.57;;
9166;SDS011;4618;48.818;9.088;2023-04-19T14:16:39;12.73;;;11.10;;
9166;SDS011;4618;48.818;9.088;2023-04-19T14:19:05;12.30;;;10.77;;
9166;SDS011;4618;48.818;9.088;2023-04-19T14:21:30;13.47;;;11.37;;
9166;SDS011;4618;48.818;9.088;2023-04-19T14:23:56;13.37;;;11.40;;
9166;SDS011;4618;48.818;9.088;2023-04-19T14:26:22;12.80;;;10.60;;
9166;SDS011;4618;48.818;9.088;2023-04-19T14:28:47;11.40;;;10.20;;
9166;SDS011;4618;48.818;9.088;2023-04-19T14:31:13;11.23;;;9.80;;
9166;SDS011;4618;48.818;9.088;2023-04-19T14:33:38;11.70;;;10.50;;
9166;SDS011;4618;48.818;9.088;2023-04-19T14:36:04;10.70;;;9.70;;
9166;SDS011;4618;48.818;9.088;2023-04-19T14:38:30;10.73;;;9.63;;
9166;SDS011;4618;48.818;9.088;2023-04-19T14:40:56;11.20;;;9.63;;
9166;SDS011;4618;48.818;9.088;2023-04-19T14:43:22;10.83;;;9.30;;
9166;SDS011;4618;48.818;9.088;2023-04-19T14:45:47;11.87;;;9.83;;
9166;SDS011;4618;48.818;9.088;2023-04-19T14:48:13;10.23;;;9.13;;
9166;SDS011;4618;48.818;9.088;2023-04-19T14:50:39;10.40;;;9.37;;
9166;SDS011;4618;48.818;9.088;2023-04-19T14:53:04;10.90;;;9.80;;
9166;SDS011;4618;48.818;9.088;2023-04-19T14:55:30;12.27;;;10.83;;
9166;SDS011;4618;48.818;9.088;2023-04-19T14:57:56;11.87;;;10.37;;
9166;SDS011;4618;48.818;9.088;2023-04-19T15:00:21;13.37;;;10.93;;
9166;SDS011;4618;48.818;9.088;2023-04-19T15:02:47;13.17;;;10.77;;
9166;SDS011;4618;48.818;9.088;2023-04-19T15:05:12;12.13;;;10.90;;
9166;SDS011;4618;48.818;9.088;2023-04-19T15:07:39;12.07;;;10.77;;
9166;SDS011;4618;48.818;9.088;2023-04-19T15:10:05;11.93;;;10.73;;
9166;SDS011;4618;48.818;9.088;2023-04-19T15:12:31;11.40;;;10.30;;
9166;SDS011;4618;48.818;9.088;2023-04-19T15:14:57;10.60;;;9.57;;